createdAt,value
2019-02-04T00:01:22.752Z,4.38
2019-02-04T00:04:14.045Z,4.26
2019-02-04T00:10:21.323Z,4.35
2019-02-04T00:13:13.843Z,4.19
2019-02-04T00:16:40.704Z,4.10
2019-02-04T00:23:09.339Z,4.07
2019-02-04T00:31:34.013Z,4.07
2019-02-04T00:34:05.347Z,4.00
2019-02-04T00:39:45.430Z,4.05
2019-02-04T00:45:41.286Z,3.97
2019-02-04T00:48:11.980Z,4.00
2019-02-04T00:50:45.306Z,4.01
2019-02-04T00:53:38.276Z,3.93
2019-02-04T00:56:23.870Z,3.96
2019-02-04T00:59:02.857Z,3.93
2019-02-04T01:01:42.200Z,3.88
2019-02-04T01:04:12.423Z,3.70
2019-02-04T01:06:42.436Z,3.72
2019-02-04T01:09:18.083Z,3.72
2019-02-04T01:11:55.011Z,3.72
2019-02-04T01:14:24.256Z,3.78
2019-02-04T01:17:03.494Z,3.82
2019-02-04T01:19:47.841Z,3.92
2019-02-04T01:22:19.957Z,3.96
2019-02-04T01:25:01.955Z,3.93
2019-02-04T01:27:38.756Z,3.93
2019-02-04T01:30:20.591Z,3.91
2019-02-04T01:32:51.612Z,3.79
2019-02-04T01:35:30.709Z,3.77
2019-02-04T01:38:09.488Z,3.66
2019-02-04T01:40:45.090Z,3.71
2019-02-04T01:43:16.393Z,3.69
2019-02-04T01:45:56.043Z,3.62
2019-02-04T01:48:39.740Z,3.51
2019-02-04T01:51:32.480Z,3.43
2019-02-04T01:54:04.001Z,3.43
2019-02-04T01:56:44.791Z,3.49
2019-02-04T01:59:20.054Z,3.43
2019-02-04T02:01:51.507Z,3.40
2019-02-04T02:04:24.474Z,3.44
2019-02-04T02:06:54.935Z,3.45
2019-02-04T02:09:29.018Z,3.45
2019-02-04T02:11:58.100Z,3.42
2019-02-04T02:14:28.030Z,3.41
2019-02-04T02:17:05.406Z,3.39
2019-02-04T02:19:40.990Z,3.44
2019-02-04T02:22:11.192Z,3.52
2019-02-04T02:24:41.690Z,3.60
2019-02-04T02:27:11.442Z,3.50
2019-02-04T02:29:40.452Z,3.50
2019-02-04T02:32:15.464Z,3.49
2019-02-04T02:34:49.534Z,3.40
2019-02-04T02:37:25.856Z,3.36
2019-02-04T02:39:56.544Z,3.41
2019-02-04T02:42:28.776Z,3.47
2019-02-04T02:44:59.066Z,3.54
2019-02-04T02:47:38.094Z,3.59
2019-02-04T02:50:01.985Z,3.61
2019-02-04T02:52:32.510Z,3.64
2019-02-04T03:01:53.383Z,3.55
2019-02-04T03:13:45.188Z,3.72
2019-02-04T03:20:09.563Z,3.75
2019-02-04T03:22:53.586Z,3.75
2019-02-04T03:25:43.985Z,3.69
2019-02-04T03:28:40.624Z,3.63
2019-02-04T03:34:30.103Z,3.50
2019-02-04T03:40:16.581Z,3.73
2019-02-04T03:49:10.622Z,3.77
2019-02-04T03:55:19.389Z,3.82
2019-02-04T03:57:58.784Z,3.83
2019-02-04T04:04:04.066Z,3.94
2019-02-04T04:15:17.436Z,3.83
2019-02-04T04:17:57.729Z,3.83
2019-02-04T04:20:57.569Z,3.72
2019-02-04T04:44:05.953Z,3.47
2019-02-04T04:50:02.496Z,3.53
2019-02-04T04:53:12.321Z,3.56
2019-02-04T04:56:11.980Z,3.52
2019-02-04T04:59:03.053Z,3.50
2019-02-04T05:01:20.652Z,3.48
2019-02-04T05:04:00.134Z,3.48
2019-02-04T05:10:14.232Z,3.40
2019-02-04T05:27:10.156Z,3.39
2019-02-04T05:29:39.045Z,3.29
2019-02-04T05:40:51.776Z,3.40
2019-02-04T05:52:04.103Z,3.44
2019-02-04T05:57:52.225Z,3.45
2019-02-04T06:00:48.528Z,3.53
2019-02-04T06:03:59.298Z,3.47
2019-02-04T06:06:27.999Z,3.46
2019-02-04T06:09:27.376Z,3.56
2019-02-04T06:15:20.008Z,3.43
2019-02-04T06:20:48.623Z,3.35
2019-02-04T06:23:57.260Z,3.37
2019-02-04T06:30:09.801Z,3.49
2019-02-04T06:32:47.271Z,3.36
2019-02-04T06:38:36.475Z,3.42
2019-02-04T06:47:01.788Z,3.59
2019-02-04T06:49:49.506Z,3.55
2019-02-04T06:52:28.937Z,3.59
2019-02-04T06:55:36.533Z,3.30
2019-02-04T06:58:26.326Z,3.48
2019-02-04T07:01:20.936Z,3.51
2019-02-04T07:03:52.080Z,3.55
2019-02-04T07:06:43.490Z,3.46
2019-02-04T07:11:56.982Z,3.59
2019-02-04T07:14:52.166Z,3.47
2019-02-04T07:20:32.432Z,3.45
2019-02-04T10:09:40.104Z,6.81
2019-02-04T10:12:25.543Z,7.02
2019-02-04T10:15:14.798Z,7.06
2019-02-04T10:18:11.356Z,7.13
2019-02-04T10:20:50.567Z,7.46
2019-02-04T10:26:54.987Z,8.32
2019-02-04T10:30:29.463Z,8.42
2019-02-04T10:35:16.767Z,8.06
2019-02-04T10:37:43.649Z,8.20
2019-02-04T10:40:23.857Z,8.77
2019-02-04T10:42:55.421Z,9.60
2019-02-04T10:45:24.920Z,9.60
2019-02-04T10:47:59.155Z,8.63
2019-02-04T10:50:27.686Z,8.89
2019-02-04T10:52:59.138Z,9.10
2019-02-04T10:55:29.139Z,9.65
2019-02-04T10:57:57.846Z,9.83
2019-02-04T11:00:34.051Z,9.86
2019-02-04T11:03:03.123Z,9.52
2019-02-04T11:05:35.199Z,8.45
2019-02-04T11:08:04.449Z,8.36
2019-02-04T11:10:35.718Z,8.36
2019-02-04T11:13:16.597Z,8.47
2019-02-04T11:15:48.674Z,8.63
2019-02-04T11:18:17.381Z,7.43
2019-02-04T11:20:57.645Z,7.27
2019-02-04T11:23:23.513Z,7.71
2019-02-04T11:25:58.833Z,7.92
2019-02-04T11:28:38.614Z,7.23
2019-02-04T11:31:14.480Z,7.69
2019-02-04T11:33:46.883Z,8.12
2019-02-04T11:36:17.630Z,8.85
2019-02-04T11:38:49.357Z,8.62
2019-02-04T11:41:18.170Z,8.93
2019-02-04T11:43:53.214Z,9.19
2019-02-04T11:46:22.076Z,9.15
2019-02-04T11:48:56.817Z,8.97
2019-02-04T11:51:31.803Z,8.24
2019-02-04T11:54:34.673Z,9.07
2019-02-04T11:57:04.331Z,8.79
2019-02-04T11:59:35.267Z,9.00
2019-02-04T12:02:09.550Z,9.69
2019-02-04T12:04:53.802Z,9.21
2019-02-04T12:07:34.547Z,10.20
2019-02-04T12:10:05.721Z,10.30
2019-02-04T12:12:37.281Z,10.30
2019-02-04T12:15:14.272Z,10.39
2019-02-04T12:17:44.657Z,10.15
2019-02-04T12:20:14.363Z,10.38
2019-02-04T12:22:43.784Z,9.87
2019-02-04T12:25:41.954Z,9.82
2019-02-04T12:28:13.803Z,8.99
2019-02-04T12:30:43.929Z,9.03
2019-02-04T12:33:37.557Z,8.79
2019-02-04T12:36:09.802Z,9.32
2019-02-04T12:38:44.055Z,9.34
2019-02-04T12:41:20.261Z,9.16
2019-02-04T12:43:48.850Z,8.94
2019-02-04T12:46:20.420Z,8.99
2019-02-04T12:48:55.553Z,8.99
2019-02-04T12:51:40.729Z,9.17
2019-02-04T12:54:10.020Z,9.15
2019-02-04T12:56:46.805Z,9.00
2019-02-04T12:59:20.317Z,9.08
2019-02-04T13:01:50.950Z,9.11
2019-02-04T13:04:20.641Z,9.46
2019-02-04T13:07:17.293Z,9.41
2019-02-04T13:09:49.769Z,9.22
2019-02-04T13:12:20.699Z,9.56
2019-02-04T13:14:49.620Z,9.44
2019-02-04T13:17:23.527Z,9.39
2019-02-04T13:19:56.675Z,9.31
2019-02-04T13:22:28.792Z,9.04
2019-02-04T13:25:00.659Z,9.19
2019-02-04T13:27:31.461Z,9.14
2019-02-04T13:30:08.765Z,9.84
2019-02-04T13:32:39.148Z,9.63
2019-02-04T13:35:15.999Z,9.63
2019-02-04T13:37:50.262Z,9.65
2019-02-04T13:40:25.193Z,9.59
2019-02-04T13:42:55.156Z,9.59
2019-02-04T13:48:43.773Z,9.22
2019-02-04T13:51:13.067Z,9.10
2019-02-04T13:53:42.188Z,9.32
2019-02-04T13:56:16.044Z,9.49
2019-02-04T13:58:47.154Z,9.37
2019-02-04T14:01:31.465Z,7.46
2019-02-04T14:04:15.239Z,9.39
2019-02-04T14:06:46.766Z,9.36
2019-02-04T14:09:21.380Z,9.11
2019-02-04T14:11:57.356Z,9.18
2019-02-04T14:14:27.858Z,9.02
2019-02-04T14:17:01.474Z,8.85
2019-02-04T14:19:31.730Z,9.03
2019-02-04T14:22:09.346Z,8.93
2019-02-04T14:24:51.921Z,9.03
2019-02-04T14:27:27.538Z,9.10
2019-02-04T14:30:00.203Z,8.59
2019-02-04T14:32:34.482Z,8.48
2019-02-04T14:35:03.561Z,8.64
2019-02-04T14:37:36.508Z,8.47
2019-02-04T14:40:18.136Z,8.63
2019-02-04T14:42:40.649Z,8.72
2019-02-04T14:45:31.624Z,8.32
2019-02-04T14:48:18.170Z,8.40
2019-02-04T14:51:06.350Z,8.23
2019-02-04T14:54:24.422Z,8.37
2019-02-04T14:57:25.117Z,8.13
2019-02-04T15:00:00.329Z,7.29
2019-02-04T15:02:52.380Z,7.50
2019-02-04T15:05:27.328Z,7.48
2019-02-04T15:08:20.518Z,7.80
2019-02-04T15:11:23.427Z,7.89
2019-02-04T15:14:46.210Z,7.62
2019-02-04T15:17:27.226Z,7.50
2019-02-04T15:20:18.016Z,7.22
2019-02-04T15:23:19.836Z,7.36
2019-02-04T15:27:45.529Z,7.59
2019-02-04T15:33:31.527Z,7.37
2019-02-04T15:37:06.410Z,7.36
2019-02-04T15:42:44.679Z,7.51
2019-02-04T15:55:11.949Z,7.63
2019-02-04T15:58:05.133Z,7.74
2019-02-04T16:00:53.110Z,7.41
2019-02-04T16:03:22.279Z,7.33
2019-02-04T16:05:55.646Z,7.20
2019-02-04T16:08:46.679Z,7.03
2019-02-04T16:11:21.690Z,7.04
2019-02-04T16:17:30.967Z,7.12
2019-02-04T16:20:41.292Z,6.96
2019-02-04T16:26:31.880Z,6.71
2019-02-04T16:44:33.574Z,7.05
2019-02-04T16:47:27.695Z,7.07
2019-02-04T16:53:30.162Z,6.98
2019-02-04T16:59:36.249Z,7.27
2019-02-04T17:13:06.360Z,6.67
2019-02-04T17:14:00.875Z,6.77
2019-02-04T17:17:06.469Z,7.12
2019-02-04T17:22:22.496Z,6.96
2019-02-04T17:24:56.011Z,7.20
2019-02-04T17:27:25.177Z,6.94
2019-02-04T17:29:58.203Z,7.35
2019-02-04T17:33:08.906Z,7.25
2019-02-04T17:35:28.763Z,6.84
2019-02-04T17:50:13.872Z,6.73
2019-02-04T17:53:04.424Z,6.85
2019-02-04T17:59:04.785Z,6.70
2019-02-04T18:02:12.092Z,6.69
2019-02-04T18:11:00.773Z,6.79
2019-02-04T18:14:18.782Z,6.73
2019-02-04T18:26:07.448Z,6.64
2019-02-04T18:31:45.245Z,6.92
2019-02-04T18:34:39.789Z,6.43
2019-02-04T18:40:09.619Z,6.74
2019-02-04T18:48:33.941Z,7.00
2019-02-04T18:57:19.290Z,6.80
2019-02-04T18:59:58.471Z,6.24
2019-02-04T19:05:35.080Z,6.22
2019-02-04T19:08:05.106Z,6.31
2019-02-04T19:14:00.794Z,6.30
2019-02-04T19:16:59.050Z,6.28
2019-02-04T19:19:35.708Z,6.50
2019-02-04T19:28:34.886Z,6.60
2019-02-04T19:34:00.634Z,6.36
2019-02-04T19:36:51.668Z,6.54
2019-02-04T19:45:43.000Z,6.66
2019-02-04T20:12:52.937Z,6.92
2019-02-04T20:15:40.747Z,7.30
2019-02-04T20:26:35.064Z,6.99
2019-02-04T20:29:22.079Z,7.32
2019-02-04T20:35:11.358Z,7.23
2019-02-04T20:37:40.996Z,7.03
2019-02-04T20:40:11.330Z,7.09
2019-02-04T20:42:42.842Z,7.12
2019-02-04T20:45:32.939Z,7.17
2019-02-04T20:48:12.642Z,7.22
2019-02-04T20:51:03.251Z,7.02
2019-02-04T20:53:46.880Z,7.08
2019-02-04T20:56:22.307Z,6.81
2019-02-04T20:59:05.126Z,6.89
2019-02-04T21:01:42.668Z,7.20
2019-02-04T21:04:13.477Z,7.22
2019-02-04T21:06:56.563Z,6.64
2019-02-04T21:09:30.811Z,6.64
2019-02-04T21:12:04.234Z,6.78
2019-02-04T21:21:37.954Z,7.06
2019-02-04T21:24:11.855Z,7.35
2019-02-04T21:32:09.240Z,7.58
2019-02-04T21:34:40.617Z,7.39
2019-02-04T21:37:11.849Z,7.44
2019-02-04T21:39:54.521Z,7.36
2019-02-04T21:42:50.618Z,7.35
2019-02-04T21:45:30.298Z,7.41
2019-02-04T21:48:03.491Z,7.54
2019-02-04T21:50:45.484Z,7.62
2019-02-04T21:53:21.633Z,7.72
2019-02-04T21:56:06.792Z,7.75
2019-02-04T21:59:15.062Z,7.75
2019-02-04T22:01:33.271Z,7.59
2019-02-04T22:04:05.960Z,7.52
2019-02-04T22:06:58.909Z,7.46
2019-02-04T22:09:33.816Z,7.48
2019-02-04T22:12:16.566Z,7.58
2019-02-04T22:14:54.631Z,7.33
2019-02-04T22:17:26.891Z,7.30
2019-02-04T22:20:06.637Z,7.37
2019-02-04T22:22:55.069Z,7.32
2019-02-04T22:25:32.462Z,7.38
2019-02-04T22:28:13.120Z,7.46
2019-02-04T22:30:47.966Z,7.60
2019-02-04T22:33:23.417Z,7.56
2019-02-04T22:35:52.326Z,7.61
2019-02-04T22:38:24.719Z,7.31
2019-02-04T22:40:54.496Z,7.08
2019-02-04T22:43:27.085Z,6.84
2019-02-04T22:45:57.992Z,6.80
2019-02-04T22:48:36.404Z,6.89
2019-02-04T22:51:08.752Z,7.06
2019-02-04T22:53:38.793Z,7.17
2019-02-04T22:56:13.060Z,7.17
2019-02-04T22:58:47.079Z,7.13
2019-02-04T23:01:23.736Z,7.16
2019-02-04T23:06:36.132Z,7.13
2019-02-04T23:09:38.149Z,7.09
2019-02-04T23:12:25.679Z,7.09
2019-02-04T23:15:29.550Z,6.83
2019-02-04T23:24:40.115Z,6.49
2019-02-04T23:27:19.626Z,5.99
2019-02-04T23:45:21.805Z,5.28
2019-02-04T23:51:21.609Z,5.28
2019-02-04T23:54:03.369Z,5.44
2019-02-04T23:56:42.693Z,5.78
2019-02-04T23:59:54.253Z,5.96
